sensor_id;sensor_type;location;lat;lon;timestamp;P1;durP1;ratioP1;P2;durP2;ratioP2
2784;SDS011;57944;48.722;9.316;2022-07-10T00:01:04;11.00;;;7.80;;
2784;SDS011;57944;48.722;9.316;2022-07-10T00:03:37;9.20;;;7.90;;
2784;SDS011;57944;48.722;9.316;2022-07-10T00:06:10;12.00;;;7.00;;
2784;SDS011;57944;48.722;9.316;2022-07-10T00:08:40;8.03;;;7.23;;
2784;SDS011;57944;48.722;9.316;2022-07-10T00:11:11;8.90;;;7.87;;
2784;SDS011;57944;48.722;9.316;2022-07-10T00:13:41;9.80;;;7.67;;
2784;SDS011;57944;48.722;9.316;2022-07-10T00:16:11;10.00;;;7.47;;
2784;SDS011;57944;48.722;9.316;2022-07-10T00:18:43;9.63;;;7.13;;
2784;SDS011;57944;48.722;9.316;2022-07-10T00:21:13;10.53;;;7.87;;
2784;SDS011;57944;48.722;9.316;2022-07-10T00:23:44;10.23;;;7.70;;
2784;SDS011;57944;48.722;9.316;2022-07-10T00:26:14;9.43;;;8.43;;
2784;SDS011;57944;48.722;9.316;2022-07-10T00:28:44;8.83;;;7.93;;
2784;SDS011;57944;48.722;9.316;2022-07-10T00:31:14;9.07;;;7.77;;
2784;SDS011;57944;48.722;9.316;2022-07-10T00:33:47;13.57;;;8.40;;
2784;SDS011;57944;48.722;9.316;2022-07-10T00:36:17;10.23;;;7.10;;
2784;SDS011;57944;48.722;9.316;2022-07-10T00:38:47;8.30;;;7.13;;
2784;SDS011;57944;48.722;9.316;2022-07-10T00:41:17;8.03;;;6.87;;
2784;SDS011;57944;48.722;9.316;2022-07-10T00:43:50;7.90;;;6.90;;
2784;SDS011;57944;48.722;9.316;2022-07-10T00:46:22;13.17;;;7.53;;
2784;SDS011;57944;48.722;9.316;2022-07-10T00:48:55;8.67;;;6.83;;
2784;SDS011;57944;48.722;9.316;2022-07-10T00:51:27;8.57;;;7.67;;
2784;SDS011;57944;48.722;9.316;2022-07-10T00:54:00;10.47;;;7.33;;
2784;SDS011;57944;48.722;9.316;2022-07-10T00:56:31;8.47;;;7.53;;
2784;SDS011;57944;48.722;9.316;2022-07-10T00:59:01;12.13;;;8.27;;
2784;SDS011;57944;48.722;9.316;2022-07-10T01:01:32;9.17;;;8.17;;
2784;SDS011;57944;48.722;9.316;2022-07-10T01:04:05;11.77;;;8.27;;
2784;SDS011;57944;48.722;9.316;2022-07-10T01:06:35;12.03;;;8.03;;
2784;SDS011;57944;48.722;9.316;2022-07-10T01:09:06;11.13;;;8.40;;
2784;SDS011;57944;48.722;9.316;2022-07-10T01:11:36;10.47;;;8.17;;
2784;SDS011;57944;48.722;9.316;2022-07-10T01:14:07;13.63;;;10.50;;
2784;SDS011;57944;48.722;9.316;2022-07-10T01:16:37;10.43;;;9.33;;
2784;SDS011;57944;48.722;9.316;2022-07-10T01:19:10;11.60;;;9.30;;
2784;SDS011;57944;48.722;9.316;2022-07-10T01:21:43;11.53;;;9.60;;
2784;SDS011;57944;48.722;9.316;2022-07-10T01:24:13;12.50;;;9.97;;
2784;SDS011;57944;48.722;9.316;2022-07-10T01:26:43;11.37;;;10.17;;
2784;SDS011;57944;48.722;9.316;2022-07-10T01:29:13;11.33;;;8.83;;
2784;SDS011;57944;48.722;9.316;2022-07-10T01:31:43;13.30;;;10.30;;
2784;SDS011;57944;48.722;9.316;2022-07-10T01:34:20;10.90;;;8.97;;
2784;SDS011;57944;48.722;9.316;2022-07-10T01:36:53;11.70;;;10.43;;
2784;SDS011;57944;48.722;9.316;2022-07-10T01:39:23;11.97;;;9.57;;
2784;SDS011;57944;48.722;9.316;2022-07-10T01:41:53;16.90;;;10.53;;
2784;SDS011;57944;48.722;9.316;2022-07-10T01:44:23;11.27;;;10.07;;
2784;SDS011;57944;48.722;9.316;2022-07-10T01:46:53;12.70;;;11.37;;
2784;SDS011;57944;48.722;9.316;2022-07-10T01:49:23;12.17;;;10.70;;
2784;SDS011;57944;48.722;9.316;2022-07-10T01:51:55;12.37;;;11.07;;
2784;SDS011;57944;48.722;9.316;2022-07-10T01:54:25;12.57;;;10.50;;
2784;SDS011;57944;48.722;9.316;2022-07-10T01:56:55;12.60;;;11.30;;
2784;SDS011;57944;48.722;9.316;2022-07-10T01:59:25;12.10;;;10.03;;
2784;SDS011;57944;48.722;9.316;2022-07-10T02:01:55;10.80;;;9.43;;
2784;SDS011;57944;48.722;9.316;2022-07-10T02:04:26;11.53;;;10.33;;
2784;SDS011;57944;48.722;9.316;2022-07-10T02:07:11;14.10;;;10.10;;
2784;SDS011;57944;48.722;9.316;2022-07-10T02:09:44;11.40;;;8.53;;
2784;SDS011;57944;48.722;9.316;2022-07-10T02:12:14;15.73;;;10.90;;
2784;SDS011;57944;48.722;9.316;2022-07-10T02:14:45;12.03;;;10.43;;
2784;SDS011;57944;48.722;9.316;2022-07-10T02:17:15;10.53;;;8.87;;
2784;SDS011;57944;48.722;9.316;2022-07-10T02:19:45;11.30;;;10.20;;
2784;SDS011;57944;48.722;9.316;2022-07-10T02:22:17;11.43;;;10.20;;
2784;SDS011;57944;48.722;9.316;2022-07-10T02:24:47;11.53;;;10.20;;
2784;SDS011;57944;48.722;9.316;2022-07-10T02:27:17;12.17;;;10.10;;
2784;SDS011;57944;48.722;9.316;2022-07-10T02:29:49;11.80;;;9.13;;
2784;SDS011;57944;48.722;9.316;2022-07-10T02:32:19;12.20;;;8.53;;
2784;SDS011;57944;48.722;9.316;2022-07-10T02:34:49;12.17;;;10.70;;
2784;SDS011;57944;48.722;9.316;2022-07-10T02:37:22;12.70;;;10.30;;
2784;SDS011;57944;48.722;9.316;2022-07-10T02:39:52;11.03;;;9.93;;
2784;SDS011;57944;48.722;9.316;2022-07-10T02:42:23;13.60;;;10.80;;
2784;SDS011;57944;48.722;9.316;2022-07-10T02:44:53;13.37;;;11.10;;
2784;SDS011;57944;48.722;9.316;2022-07-10T02:47:23;17.03;;;12.60;;
2784;SDS011;57944;48.722;9.316;2022-07-10T02:49:53;12.10;;;10.20;;
2784;SDS011;57944;48.722;9.316;2022-07-10T02:52:25;11.03;;;9.87;;
2784;SDS011;57944;48.722;9.316;2022-07-10T02:54:57;15.03;;;10.57;;
2784;SDS011;57944;48.722;9.316;2022-07-10T02:57:27;16.07;;;9.57;;
2784;SDS011;57944;48.722;9.316;2022-07-10T02:59:57;11.87;;;8.90;;
2784;SDS011;57944;48.722;9.316;2022-07-10T03:02:27;12.53;;;9.33;;
2784;SDS011;57944;48.722;9.316;2022-07-10T03:04:57;18.33;;;10.90;;
2784;SDS011;57944;48.722;9.316;2022-07-10T03:07:30;17.37;;;12.60;;
2784;SDS011;57944;48.722;9.316;2022-07-10T03:10:00;21.70;;;12.17;;
2784;SDS011;57944;48.722;9.316;2022-07-10T03:12:34;16.10;;;10.83;;
2784;SDS011;57944;48.722;9.316;2022-07-10T03:15:04;16.13;;;13.50;;
2784;SDS011;57944;48.722;9.316;2022-07-10T03:17:36;17.93;;;12.60;;
2784;SDS011;57944;48.722;9.316;2022-07-10T03:20:06;16.10;;;11.70;;
2784;SDS011;57944;48.722;9.316;2022-07-10T03:22:40;14.47;;;12.33;;
2784;SDS011;57944;48.722;9.316;2022-07-10T03:25:10;15.30;;;13.37;;
2784;SDS011;57944;48.722;9.316;2022-07-10T03:27:42;12.53;;;11.17;;
2784;SDS011;57944;48.722;9.316;2022-07-10T03:30:12;17.40;;;12.57;;
2784;SDS011;57944;48.722;9.316;2022-07-10T03:32:42;15.00;;;11.53;;
2784;SDS011;57944;48.722;9.316;2022-07-10T03:35:12;14.83;;;12.90;;
2784;SDS011;57944;48.722;9.316;2022-07-10T03:37:44;14.47;;;11.37;;
2784;SDS011;57944;48.722;9.316;2022-07-10T03:40:14;18.03;;;12.93;;
2784;SDS011;57944;48.722;9.316;2022-07-10T03:42:45;14.30;;;11.90;;
2784;SDS011;57944;48.722;9.316;2022-07-10T03:45:15;16.00;;;12.47;;
2784;SDS011;57944;48.722;9.316;2022-07-10T03:47:45;12.40;;;11.20;;
2784;SDS011;57944;48.722;9.316;2022-07-10T03:50:15;14.00;;;11.73;;
2784;SDS011;57944;48.722;9.316;2022-07-10T03:52:48;12.00;;;10.57;;
2784;SDS011;57944;48.722;9.316;2022-07-10T03:55:18;16.37;;;11.60;;
2784;SDS011;57944;48.722;9.316;2022-07-10T03:57:48;13.33;;;11.77;;
2784;SDS011;57944;48.722;9.316;2022-07-10T04:00:23;16.03;;;11.17;;
2784;SDS011;57944;48.722;9.316;2022-07-10T04:02:55;14.63;;;11.90;;
2784;SDS011;57944;48.722;9.316;2022-07-10T04:05:27;15.00;;;12.73;;
2784;SDS011;57944;48.722;9.316;2022-07-10T04:08:00;22.80;;;12.70;;
2784;SDS011;57944;48.722;9.316;2022-07-10T04:10:32;15.30;;;12.93;;
2784;SDS011;57944;48.722;9.316;2022-07-10T04:13:02;15.70;;;13.00;;
2784;SDS011;57944;48.722;9.316;2022-07-10T04:15:32;14.67;;;12.37;;
2784;SDS011;57944;48.722;9.316;2022-07-10T04:18:02;13.57;;;11.40;;
2784;SDS011;57944;48.722;9.316;2022-07-10T04:20:32;14.03;;;11.63;;
2784;SDS011;57944;48.722;9.316;2022-07-10T04:23:05;14.73;;;12.20;;
2784;SDS011;57944;48.722;9.316;2022-07-10T04:25:35;16.07;;;12.20;;
2784;SDS011;57944;48.722;9.316;2022-07-10T04:28:05;13.20;;;11.80;;
2784;SDS011;57944;48.722;9.316;2022-07-10T04:30:35;13.37;;;11.50;;
2784;SDS011;57944;48.722;9.316;2022-07-10T04:33:05;15.57;;;11.80;;
2784;SDS011;57944;48.722;9.316;2022-07-10T04:35:35;14.73;;;11.80;;
2784;SDS011;57944;48.722;9.316;2022-07-10T04:38:08;13.20;;;11.10;;
2784;SDS011;57944;48.722;9.316;2022-07-10T04:40:38;26.57;;;12.10;;
2784;SDS011;57944;48.722;9.316;2022-07-10T04:43:08;19.90;;;12.03;;
2784;SDS011;57944;48.722;9.316;2022-07-10T04:45:39;12.63;;;10.70;;
2784;SDS011;57944;48.722;9.316;2022-07-10T04:48:09;17.10;;;12.30;;
2784;SDS011;57944;48.722;9.316;2022-07-10T04:50:39;14.43;;;11.23;;
2784;SDS011;57944;48.722;9.316;2022-07-10T04:53:11;14.30;;;11.57;;
2784;SDS011;57944;48.722;9.316;2022-07-10T04:55:41;13.00;;;11.67;;
2784;SDS011;57944;48.722;9.316;2022-07-10T04:58:12;12.33;;;11.00;;
2784;SDS011;57944;48.722;9.316;2022-07-10T05:00:42;11.33;;;10.00;;
2784;SDS011;57944;48.722;9.316;2022-07-10T05:03:12;18.00;;;11.27;;
2784;SDS011;57944;48.722;9.316;2022-07-10T05:05:42;12.33;;;10.30;;
2784;SDS011;57944;48.722;9.316;2022-07-10T05:08:15;11.80;;;8.70;;
2784;SDS011;57944;48.722;9.316;2022-07-10T05:10:45;10.80;;;9.50;;
2784;SDS011;57944;48.722;9.316;2022-07-10T05:13:15;11.23;;;9.83;;
2784;SDS011;57944;48.722;9.316;2022-07-10T05:15:45;10.27;;;8.70;;
2784;SDS011;57944;48.722;9.316;2022-07-10T05:18:16;8.17;;;7.17;;
2784;SDS011;57944;48.722;9.316;2022-07-10T05:20:46;12.20;;;7.10;;
2784;SDS011;57944;48.722;9.316;2022-07-10T05:23:19;7.97;;;7.03;;
2784;SDS011;57944;48.722;9.316;2022-07-10T05:25:50;8.20;;;7.37;;
2784;SDS011;57944;48.722;9.316;2022-07-10T05:28:20;10.80;;;7.53;;
2784;SDS011;57944;48.722;9.316;2022-07-10T05:30:50;8.63;;;7.13;;
2784;SDS011;57944;48.722;9.316;2022-07-10T05:33:20;9.20;;;7.00;;
2784;SDS011;57944;48.722;9.316;2022-07-10T05:35:52;8.10;;;7.30;;
2784;SDS011;57944;48.722;9.316;2022-07-10T05:38:25;10.03;;;7.80;;
2784;SDS011;57944;48.722;9.316;2022-07-10T05:40:55;8.50;;;7.07;;
2784;SDS011;57944;48.722;9.316;2022-07-10T05:43:25;13.33;;;6.13;;
2784;SDS011;57944;48.722;9.316;2022-07-10T05:45:56;12.00;;;7.40;;
2784;SDS011;57944;48.722;9.316;2022-07-10T05:48:26;9.57;;;6.80;;
2784;SDS011;57944;48.722;9.316;2022-07-10T05:50:56;9.63;;;6.30;;
2784;SDS011;57944;48.722;9.316;2022-07-10T05:53:49;7.17;;;6.47;;
2784;SDS011;57944;48.722;9.316;2022-07-10T05:56:19;9.93;;;6.43;;
2784;SDS011;57944;48.722;9.316;2022-07-10T05:58:49;12.73;;;6.57;;
2784;SDS011;57944;48.722;9.316;2022-07-10T06:01:22;9.03;;;6.23;;
2784;SDS011;57944;48.722;9.316;2022-07-10T06:03:52;9.07;;;5.63;;
2784;SDS011;57944;48.722;9.316;2022-07-10T06:06:22;17.07;;;6.13;;
2784;SDS011;57944;48.722;9.316;2022-07-10T06:08:55;7.87;;;5.37;;
2784;SDS011;57944;48.722;9.316;2022-07-10T06:11:25;7.40;;;4.60;;
2784;SDS011;57944;48.722;9.316;2022-07-10T06:13:55;10.73;;;4.40;;
2784;SDS011;57944;48.722;9.316;2022-07-10T06:16:25;7.27;;;4.33;;
2784;SDS011;57944;48.722;9.316;2022-07-10T06:18:55;8.63;;;5.13;;
2784;SDS011;57944;48.722;9.316;2022-07-10T06:21:25;7.63;;;5.00;;
2784;SDS011;57944;48.722;9.316;2022-07-10T06:23:58;5.67;;;3.97;;
2784;SDS011;57944;48.722;9.316;2022-07-10T06:26:28;6.77;;;4.40;;
2784;SDS011;57944;48.722;9.316;2022-07-10T06:28:58;6.03;;;4.23;;
2784;SDS011;57944;48.722;9.316;2022-07-10T06:31:28;6.70;;;4.37;;
2784;SDS011;57944;48.722;9.316;2022-07-10T06:33:58;8.63;;;4.97;;
2784;SDS011;57944;48.722;9.316;2022-07-10T06:36:28;5.50;;;4.00;;
2784;SDS011;57944;48.722;9.316;2022-07-10T06:39:02;8.67;;;4.60;;
2784;SDS011;57944;48.722;9.316;2022-07-10T06:41:32;6.20;;;3.63;;
2784;SDS011;57944;48.722;9.316;2022-07-10T06:44:02;5.37;;;3.57;;
2784;SDS011;57944;48.722;9.316;2022-07-10T06:46:32;10.60;;;4.07;;
2784;SDS011;57944;48.722;9.316;2022-07-10T06:49:02;10.03;;;4.80;;
2784;SDS011;57944;48.722;9.316;2022-07-10T06:51:30;8.13;;;4.17;;
2784;SDS011;57944;48.722;9.316;2022-07-10T06:54:03;6.93;;;4.77;;
2784;SDS011;57944;48.722;9.316;2022-07-10T06:56:33;8.33;;;3.67;;
2784;SDS011;57944;48.722;9.316;2022-07-10T06:59:03;7.13;;;3.60;;
2784;SDS011;57944;48.722;9.316;2022-07-10T07:01:33;5.93;;;3.30;;
2784;SDS011;57944;48.722;9.316;2022-07-10T07:04:03;9.33;;;4.50;;
2784;SDS011;57944;48.722;9.316;2022-07-10T07:06:33;6.83;;;3.73;;
2784;SDS011;57944;48.722;9.316;2022-07-10T07:09:06;6.73;;;3.10;;
2784;SDS011;57944;48.722;9.316;2022-07-10T07:11:36;8.10;;;4.40;;
2784;SDS011;57944;48.722;9.316;2022-07-10T07:14:06;5.37;;;3.53;;
2784;SDS011;57944;48.722;9.316;2022-07-10T07:16:36;6.10;;;3.67;;
2784;SDS011;57944;48.722;9.316;2022-07-10T07:19:12;5.10;;;4.07;;
2784;SDS011;57944;48.722;9.316;2022-07-10T07:21:47;9.13;;;3.13;;
2784;SDS011;57944;48.722;9.316;2022-07-10T07:24:32;7.77;;;3.67;;
2784;SDS011;57944;48.722;9.316;2022-07-10T07:27:02;6.00;;;2.70;;
2784;SDS011;57944;48.722;9.316;2022-07-10T07:29:33;5.60;;;3.70;;
2784;SDS011;57944;48.722;9.316;2022-07-10T07:32:04;7.10;;;3.40;;
2784;SDS011;57944;48.722;9.316;2022-07-10T07:34:34;7.67;;;3.17;;
2784;SDS011;57944;48.722;9.316;2022-07-10T07:37:04;4.40;;;2.77;;
2784;SDS011;57944;48.722;9.316;2022-07-10T07:39:37;4.97;;;2.73;;
2784;SDS011;57944;48.722;9.316;2022-07-10T07:42:07;5.67;;;2.80;;
2784;SDS011;57944;48.722;9.316;2022-07-10T07:44:37;4.33;;;2.97;;
2784;SDS011;57944;48.722;9.316;2022-07-10T07:47:07;4.83;;;3.20;;
2784;SDS011;57944;48.722;9.316;2022-07-10T07:49:37;6.20;;;3.27;;
2784;SDS011;57944;48.722;9.316;2022-07-10T07:52:07;5.57;;;2.70;;
2784;SDS011;57944;48.722;9.316;2022-07-10T07:54:40;4.80;;;3.37;;
2784;SDS011;57944;48.722;9.316;2022-07-10T07:57:10;6.80;;;3.10;;
2784;SDS011;57944;48.722;9.316;2022-07-10T07:59:40;5.90;;;3.47;;
2784;SDS011;57944;48.722;9.316;2022-07-10T08:02:10;5.20;;;3.17;;
2784;SDS011;57944;48.722;9.316;2022-07-10T08:04:40;7.63;;;3.03;;
2784;SDS011;57944;48.722;9.316;2022-07-10T08:07:11;7.73;;;3.37;;
2784;SDS011;57944;48.722;9.316;2022-07-10T08:09:43;5.70;;;3.20;;
2784;SDS011;57944;48.722;9.316;2022-07-10T08:12:15;7.17;;;3.70;;
2784;SDS011;57944;48.722;9.316;2022-07-10T08:14:45;6.73;;;2.70;;
2784;SDS011;57944;48.722;9.316;2022-07-10T08:17:15;4.13;;;2.83;;
2784;SDS011;57944;48.722;9.316;2022-07-10T08:19:45;4.70;;;2.80;;
2784;SDS011;57944;48.722;9.316;2022-07-10T08:22:15;9.50;;;3.27;;
2784;SDS011;57944;48.722;9.316;2022-07-10T08:24:48;4.40;;;3.10;;
2784;SDS011;57944;48.722;9.316;2022-07-10T08:27:18;7.80;;;3.00;;
2784;SDS011;57944;48.722;9.316;2022-07-10T08:29:48;6.77;;;3.47;;
2784;SDS011;57944;48.722;9.316;2022-07-10T08:32:18;8.00;;;3.40;;
2784;SDS011;57944;48.722;9.316;2022-07-10T08:34:48;5.60;;;3.10;;
2784;SDS011;57944;48.722;9.316;2022-07-10T08:37:18;7.20;;;3.00;;
2784;SDS011;57944;48.722;9.316;2022-07-10T08:39:51;5.77;;;2.70;;
2784;SDS011;57944;48.722;9.316;2022-07-10T08:42:21;4.20;;;2.70;;
2784;SDS011;57944;48.722;9.316;2022-07-10T08:44:53;6.67;;;2.70;;
2784;SDS011;57944;48.722;9.316;2022-07-10T08:47:23;6.40;;;2.77;;
2784;SDS011;57944;48.722;9.316;2022-07-10T08:50:03;7.60;;;3.27;;
2784;SDS011;57944;48.722;9.316;2022-07-10T08:52:41;5.27;;;2.70;;
2784;SDS011;57944;48.722;9.316;2022-07-10T08:55:26;8.00;;;4.33;;
2784;SDS011;57944;48.722;9.316;2022-07-10T08:57:56;8.60;;;3.07;;
2784;SDS011;57944;48.722;9.316;2022-07-10T09:00:28;5.57;;;3.40;;
2784;SDS011;57944;48.722;9.316;2022-07-10T09:02:59;6.47;;;2.87;;
2784;SDS011;57944;48.722;9.316;2022-07-10T09:05:29;7.50;;;2.93;;
2784;SDS011;57944;48.722;9.316;2022-07-10T09:07:59;8.25;;;3.40;;
2784;SDS011;57944;48.722;9.316;2022-07-10T09:10:31;4.07;;;2.90;;
2784;SDS011;57944;48.722;9.316;2022-07-10T09:13:01;6.20;;;3.30;;
2784;SDS011;57944;48.722;9.316;2022-07-10T09:15:31;10.47;;;4.50;;
2784;SDS011;57944;48.722;9.316;2022-07-10T09:18:02;4.37;;;2.93;;
2784;SDS011;57944;48.722;9.316;2022-07-10T09:20:35;5.40;;;3.50;;
2784;SDS011;57944;48.722;9.316;2022-07-10T09:23:15;5.17;;;3.20;;
2784;SDS011;57944;48.722;9.316;2022-07-10T09:25:50;8.23;;;3.13;;
2784;SDS011;57944;48.722;9.316;2022-07-10T09:28:22;5.63;;;2.53;;
2784;SDS011;57944;48.722;9.316;2022-07-10T09:30:52;4.87;;;2.97;;
2784;SDS011;57944;48.722;9.316;2022-07-10T09:33:23;4.63;;;2.93;;
2784;SDS011;57944;48.722;9.316;2022-07-10T09:35:56;9.33;;;3.00;;
2784;SDS011;57944;48.722;9.316;2022-07-10T09:38:50;5.83;;;2.80;;
2784;SDS011;57944;48.722;9.316;2022-07-10T09:41:27;4.53;;;3.30;;
2784;SDS011;57944;48.722;9.316;2022-07-10T09:43:59;5.87;;;3.00;;
2784;SDS011;57944;48.722;9.316;2022-07-10T09:46:33;4.53;;;2.60;;
2784;SDS011;57944;48.722;9.316;2022-07-10T09:49:05;3.73;;;2.50;;
2784;SDS011;57944;48.722;9.316;2022-07-10T09:51:38;5.80;;;2.63;;
2784;SDS011;57944;48.722;9.316;2022-07-10T09:54:15;4.53;;;2.87;;
2784;SDS011;57944;48.722;9.316;2022-07-10T09:56:48;4.30;;;2.80;;
2784;SDS011;57944;48.722;9.316;2022-07-10T09:59:22;5.73;;;2.90;;
2784;SDS011;57944;48.722;9.316;2022-07-10T10:01:52;5.33;;;2.23;;
2784;SDS011;57944;48.722;9.316;2022-07-10T10:04:22;5.03;;;1.93;;
2784;SDS011;57944;48.722;9.316;2022-07-10T10:06:56;4.60;;;2.60;;
2784;SDS011;57944;48.722;9.316;2022-07-10T10:09:29;5.50;;;3.33;;
2784;SDS011;57944;48.722;9.316;2022-07-10T10:12:13;7.23;;;2.70;;
2784;SDS011;57944;48.722;9.316;2022-07-10T10:14:52;4.20;;;2.67;;
2784;SDS011;57944;48.722;9.316;2022-07-10T10:17:24;7.93;;;2.20;;
2784;SDS011;57944;48.722;9.316;2022-07-10T10:19:57;6.50;;;2.50;;
2784;SDS011;57944;48.722;9.316;2022-07-10T10:22:51;5.67;;;2.60;;
2784;SDS011;57944;48.722;9.316;2022-07-10T10:25:23;4.90;;;2.53;;
2784;SDS011;57944;48.722;9.316;2022-07-10T10:27:58;5.30;;;2.77;;
2784;SDS011;57944;48.722;9.316;2022-07-10T10:30:30;6.90;;;2.33;;
2784;SDS011;57944;48.722;9.316;2022-07-10T10:33:02;5.63;;;2.73;;
2784;SDS011;57944;48.722;9.316;2022-07-10T10:35:42;4.37;;;2.73;;
2784;SDS011;57944;48.722;9.316;2022-07-10T10:38:13;5.50;;;3.00;;
2784;SDS011;57944;48.722;9.316;2022-07-10T10:40:44;5.43;;;2.60;;
2784;SDS011;57944;48.722;9.316;2022-07-10T10:43:20;5.93;;;2.83;;
2784;SDS011;57944;48.722;9.316;2022-07-10T10:45:52;8.57;;;3.10;;
2784;SDS011;57944;48.722;9.316;2022-07-10T10:48:22;5.00;;;2.70;;
2784;SDS011;57944;48.722;9.316;2022-07-10T10:51:08;5.80;;;2.60;;
2784;SDS011;57944;48.722;9.316;2022-07-10T10:53:38;4.97;;;2.40;;
2784;SDS011;57944;48.722;9.316;2022-07-10T10:58:58;7.97;;;3.27;;
2784;SDS011;57944;48.722;9.316;2022-07-10T11:01:28;4.60;;;2.63;;
2784;SDS011;57944;48.722;9.316;2022-07-10T11:06:47;7.07;;;3.17;;
2784;SDS011;57944;48.722;9.316;2022-07-10T11:09:23;4.20;;;3.13;;
2784;SDS011;57944;48.722;9.316;2022-07-10T11:12:02;5.33;;;2.80;;
2784;SDS011;57944;48.722;9.316;2022-07-10T11:14:37;5.13;;;2.00;;
2784;SDS011;57944;48.722;9.316;2022-07-10T11:17:09;7.40;;;2.87;;
2784;SDS011;57944;48.722;9.316;2022-07-10T11:19:40;3.53;;;2.10;;
2784;SDS011;57944;48.722;9.316;2022-07-10T11:22:22;4.77;;;2.20;;
2784;SDS011;57944;48.722;9.316;2022-07-10T11:25:20;4.87;;;2.33;;
2784;SDS011;57944;48.722;9.316;2022-07-10T11:28:09;4.43;;;2.40;;
2784;SDS011;57944;48.722;9.316;2022-07-10T11:30:46;5.10;;;2.43;;
2784;SDS011;57944;48.722;9.316;2022-07-10T11:33:19;6.77;;;2.30;;
2784;SDS011;57944;48.722;9.316;2022-07-10T11:35:52;6.23;;;3.00;;
2784;SDS011;57944;48.722;9.316;2022-07-10T11:38:23;3.53;;;2.20;;
2784;SDS011;57944;48.722;9.316;2022-07-10T11:40:55;3.20;;;2.13;;
2784;SDS011;57944;48.722;9.316;2022-07-10T11:43:25;4.90;;;2.90;;
2784;SDS011;57944;48.722;9.316;2022-07-10T11:45:57;5.67;;;2.23;;
2784;SDS011;57944;48.722;9.316;2022-07-10T11:48:29;4.40;;;2.40;;
2784;SDS011;57944;48.722;9.316;2022-07-10T11:51:17;4.03;;;2.40;;
2784;SDS011;57944;48.722;9.316;2022-07-10T11:53:57;9.03;;;2.03;;
2784;SDS011;57944;48.722;9.316;2022-07-10T11:56:30;5.07;;;2.20;;
2784;SDS011;57944;48.722;9.316;2022-07-10T11:59:03;6.13;;;2.83;;
2784;SDS011;57944;48.722;9.316;2022-07-10T12:01:40;6.90;;;2.50;;
2784;SDS011;57944;48.722;9.316;2022-07-10T12:04:12;3.37;;;2.20;;
2784;SDS011;57944;48.722;9.316;2022-07-10T12:06:45;6.33;;;2.63;;
2784;SDS011;57944;48.722;9.316;2022-07-10T12:09:17;5.90;;;2.20;;
2784;SDS011;57944;48.722;9.316;2022-07-10T12:11:57;4.57;;;1.90;;
2784;SDS011;57944;48.722;9.316;2022-07-10T12:14:29;3.50;;;2.60;;
2784;SDS011;57944;48.722;9.316;2022-07-10T12:17:08;3.33;;;1.90;;
2784;SDS011;57944;48.722;9.316;2022-07-10T12:19:42;3.50;;;2.20;;
2784;SDS011;57944;48.722;9.316;2022-07-10T12:22:17;4.07;;;1.93;;
2784;SDS011;57944;48.722;9.316;2022-07-10T12:24:47;4.73;;;1.90;;
2784;SDS011;57944;48.722;9.316;2022-07-10T12:30:09;4.17;;;2.03;;
2784;SDS011;57944;48.722;9.316;2022-07-10T12:32:43;4.50;;;2.10;;
2784;SDS011;57944;48.722;9.316;2022-07-10T12:35:13;7.80;;;3.80;;
2784;SDS011;57944;48.722;9.316;2022-07-10T12:37:49;4.90;;;2.53;;
2784;SDS011;57944;48.722;9.316;2022-07-10T12:40:32;4.53;;;2.47;;
2784;SDS011;57944;48.722;9.316;2022-07-10T12:43:03;3.07;;;1.70;;
2784;SDS011;57944;48.722;9.316;2022-07-10T12:45:37;4.73;;;1.77;;
2784;SDS011;57944;48.722;9.316;2022-07-10T12:48:20;3.00;;;1.83;;
2784;SDS011;57944;48.722;9.316;2022-07-10T12:50:51;5.37;;;2.00;;
2784;SDS011;57944;48.722;9.316;2022-07-10T12:53:22;3.97;;;1.63;;
2784;SDS011;57944;48.722;9.316;2022-07-10T12:55:51;4.17;;;2.17;;
2784;SDS011;57944;48.722;9.316;2022-07-10T12:58:22;3.13;;;1.90;;
2784;SDS011;57944;48.722;9.316;2022-07-10T13:00:52;5.17;;;2.17;;
2784;SDS011;57944;48.722;9.316;2022-07-10T13:03:25;5.07;;;2.00;;
2784;SDS011;57944;48.722;9.316;2022-07-10T13:05:57;5.80;;;2.30;;
2784;SDS011;57944;48.722;9.316;2022-07-10T13:08:27;5.73;;;2.10;;
2784;SDS011;57944;48.722;9.316;2022-07-10T13:10:58;5.53;;;2.17;;
2784;SDS011;57944;48.722;9.316;2022-07-10T13:13:28;3.53;;;1.80;;
2784;SDS011;57944;48.722;9.316;2022-07-10T13:15:58;3.83;;;2.00;;
2784;SDS011;57944;48.722;9.316;2022-07-10T13:18:30;4.03;;;1.87;;
2784;SDS011;57944;48.722;9.316;2022-07-10T13:21:00;3.20;;;1.70;;
2784;SDS011;57944;48.722;9.316;2022-07-10T13:23:31;5.47;;;2.00;;
2784;SDS011;57944;48.722;9.316;2022-07-10T13:26:01;2.80;;;1.50;;
2784;SDS011;57944;48.722;9.316;2022-07-10T13:28:33;4.70;;;1.83;;
2784;SDS011;57944;48.722;9.316;2022-07-10T13:31:04;6.93;;;2.07;;
2784;SDS011;57944;48.722;9.316;2022-07-10T13:33:37;4.60;;;2.03;;
2784;SDS011;57944;48.722;9.316;2022-07-10T13:36:07;5.43;;;2.27;;
2784;SDS011;57944;48.722;9.316;2022-07-10T13:38:37;5.53;;;1.50;;
2784;SDS011;57944;48.722;9.316;2022-07-10T13:41:08;3.63;;;1.63;;
2784;SDS011;57944;48.722;9.316;2022-07-10T13:43:38;5.80;;;1.93;;
2784;SDS011;57944;48.722;9.316;2022-07-10T13:46:08;6.07;;;2.03;;
2784;SDS011;57944;48.722;9.316;2022-07-10T13:48:41;4.00;;;1.33;;
2784;SDS011;57944;48.722;9.316;2022-07-10T13:51:11;3.50;;;1.87;;
2784;SDS011;57944;48.722;9.316;2022-07-10T13:53:41;3.60;;;1.57;;
2784;SDS011;57944;48.722;9.316;2022-07-10T13:56:11;3.73;;;1.50;;
2784;SDS011;57944;48.722;9.316;2022-07-10T13:58:42;4.60;;;1.60;;
2784;SDS011;57944;48.722;9.316;2022-07-10T14:01:13;6.07;;;1.80;;
2784;SDS011;57944;48.722;9.316;2022-07-10T14:03:45;4.07;;;1.50;;
2784;SDS011;57944;48.722;9.316;2022-07-10T14:06:16;3.83;;;1.60;;
2784;SDS011;57944;48.722;9.316;2022-07-10T14:08:47;8.03;;;1.90;;
2784;SDS011;57944;48.722;9.316;2022-07-10T14:11:17;4.23;;;1.80;;
2784;SDS011;57944;48.722;9.316;2022-07-10T14:13:47;5.30;;;1.60;;
2784;SDS011;57944;48.722;9.316;2022-07-10T14:16:17;2.80;;;1.40;;
2784;SDS011;57944;48.722;9.316;2022-07-10T14:18:50;3.97;;;1.87;;
2784;SDS011;57944;48.722;9.316;2022-07-10T14:21:20;3.83;;;1.60;;
2784;SDS011;57944;48.722;9.316;2022-07-10T14:23:53;4.67;;;2.10;;
2784;SDS011;57944;48.722;9.316;2022-07-10T14:26:24;2.87;;;1.57;;
2784;SDS011;57944;48.722;9.316;2022-07-10T14:28:54;3.77;;;1.80;;
2784;SDS011;57944;48.722;9.316;2022-07-10T14:31:24;7.63;;;2.00;;
2784;SDS011;57944;48.722;9.316;2022-07-10T14:33:56;4.60;;;1.73;;
2784;SDS011;57944;48.722;9.316;2022-07-10T14:36:26;5.50;;;2.10;;
2784;SDS011;57944;48.722;9.316;2022-07-10T14:38:57;3.03;;;1.80;;
2784;SDS011;57944;48.722;9.316;2022-07-10T14:41:27;3.30;;;1.70;;
2784;SDS011;57944;48.722;9.316;2022-07-10T14:43:57;4.03;;;1.60;;
2784;SDS011;57944;48.722;9.316;2022-07-10T14:46:28;3.13;;;1.60;;
2784;SDS011;57944;48.722;9.316;2022-07-10T14:49:00;4.10;;;2.00;;
2784;SDS011;57944;48.722;9.316;2022-07-10T14:51:31;4.60;;;2.30;;
2784;SDS011;57944;48.722;9.316;2022-07-10T14:54:05;6.57;;;2.30;;
2784;SDS011;57944;48.722;9.316;2022-07-10T14:56:35;3.73;;;1.70;;
2784;SDS011;57944;48.722;9.316;2022-07-10T14:59:05;3.37;;;1.40;;
2784;SDS011;57944;48.722;9.316;2022-07-10T15:01:40;5.50;;;1.70;;
2784;SDS011;57944;48.722;9.316;2022-07-10T15:04:13;5.13;;;1.90;;
2784;SDS011;57944;48.722;9.316;2022-07-10T15:06:43;4.50;;;1.63;;
2784;SDS011;57944;48.722;9.316;2022-07-10T15:09:14;3.77;;;1.70;;
2784;SDS011;57944;48.722;9.316;2022-07-10T15:11:44;2.87;;;1.40;;
2784;SDS011;57944;48.722;9.316;2022-07-10T15:14:14;6.50;;;1.90;;
2784;SDS011;57944;48.722;9.316;2022-07-10T15:16:44;5.17;;;1.73;;
2784;SDS011;57944;48.722;9.316;2022-07-10T15:19:16;3.33;;;1.53;;
2784;SDS011;57944;48.722;9.316;2022-07-10T15:21:46;5.10;;;1.77;;
2784;SDS011;57944;48.722;9.316;2022-07-10T15:24:16;6.03;;;1.53;;
2784;SDS011;57944;48.722;9.316;2022-07-10T15:26:46;2.33;;;1.20;;
2784;SDS011;57944;48.722;9.316;2022-07-10T15:29:17;4.47;;;1.40;;